Kezdőlap
METAR-TAF:

METAR-TAF

Repülőterek :

Benslimane, Marokkó

földrajzi szélesség: 33-39-20N, földrajzi hosszúság: 007-13-17W, magasság: 191 m

Jelenlegi meteorológiai megfigyelések

A jelentés 1 órával és 3 perccel ezelõtt készült, 23:00 UTC
Északnyugati szél 4 kt
Hőmérséklet 17°C
Páratartalom 100%
Légköri nyomás 1019 hPa
Látótávolság 10 km, vagy több

METAR: GMMB 262300Z AUTO 32004KT 9999 FEW013/// 17/17 Q1019 NOSIG

Idő: 01:03 (00:03 UTC)


TAF: hiányzik

Meteorológiai megfigyelések és előrejelzések több, mint 4000 repülőtéren (METAR és TAF jelentéseket).

A térképen piros és sárga pontok jelzik az elérhető meteorológiai állomásokat.

Mozgassa az egeret a pont fölött, hogy megjelenjen az állomás neve.

Azután kattintson az időjárási megfigyelések és előrejelzések megtekintéséhez.

A térkép megváltoztatása: kattintson a fekete keresztel jelölt zöld gombra ráközelítéshez, a vonallal jelölt zöld gombra távolításhoz, vagy a zöld nyilakra a szomszédos térképek eléréséhez.


METAR-TAF: